Time;durP1;ratioP1;P1;durP2;ratioP2;P2;SDS_P1;SDS_P2;PMS_P1;PMS_P2;Temp;Humidity;BMP_temperature;BMP_pressure;BME280_temperature;BME280_humidity;BME280_pressure;Samples;Min_cycle;Max_cycle;Signal;HPM_P1;HPM_P2
2022/07/30 00:00:59;;;;;;;2.85;2.40;;;;;;;18.34;100.00;96812.84;5047127;28;20196;-55
2022/07/30 00:03:26;;;;;;;2.50;2.30;;;;;;;18.39;100.00;96809.59;5062477;28;20203;-55
2022/07/30 00:05:53;;;;;;;2.28;2.17;;;;;;;18.41;100.00;96815.59;5066108;28;20224;-55
2022/07/30 00:08:20;;;;;;;2.60;2.40;;;;;;;18.43;100.00;96818.91;5047566;28;20218;-55
2022/07/30 00:10:46;;;;;;;2.10;2.00;;;;;;;18.45;100.00;96816.91;5058332;28;20219;-56
2022/07/30 00:13:14;;;;;;;2.55;2.45;;;;;;;18.46;100.00;96815.84;5067371;28;20209;-55
2022/07/30 00:15:41;;;;;;;2.10;2.00;;;;;;;18.47;100.00;96817.53;5067186;28;20191;-54
2022/07/30 00:18:08;;;;;;;2.20;2.10;;;;;;;18.45;100.00;96811.53;5045721;28;20283;-55
2022/07/30 00:20:35;;;;;;;2.70;2.50;;;;;;;18.44;100.00;96812.53;5045367;28;20287;-54
2022/07/30 00:23:02;;;;;;;2.30;2.10;;;;;;;18.44;100.00;96814.38;5045918;28;20537;-54
2022/07/30 00:25:29;;;;;;;2.30;2.15;;;;;;;18.37;100.00;96806.28;5046935;28;20230;-54
2022/07/30 00:27:56;;;;;;;2.17;2.08;;;;;;;18.38;100.00;96811.47;5045710;28;20238;-55
2022/07/30 00:30:27;;;;;;;1.98;1.88;;;;;;;18.33;100.00;96805.81;5045146;28;20275;-56
2022/07/30 00:32:54;;;;;;;2.33;2.22;;;;;;;18.36;100.00;96802.75;5047085;28;20325;-56
2022/07/30 00:35:20;;;;;;;2.15;2.00;;;;;;;18.35;100.00;96808.34;5044859;28;20298;-56
2022/07/30 00:37:47;;;;;;;3.45;2.45;;;;;;;18.35;100.00;96805.66;5044884;28;20199;-54
2022/07/30 00:40:14;;;;;;;2.15;2.03;;;;;;;18.34;100.00;96806.66;5046032;28;20310;-54
2022/07/30 00:42:42;;;;;;;2.45;2.25;;;;;;;18.36;100.00;96805.44;5044997;28;20231;-55
2022/07/30 00:45:10;;;;;;;2.60;2.45;;;;;;;18.34;100.00;96809.34;5045589;28;20195;-55
2022/07/30 00:47:39;;;;;;;2.70;2.47;;;;;;;18.38;100.00;96802.59;5044879;28;20258;-55
2022/07/30 00:50:07;;;;;;;2.83;2.67;;;;;;;18.40;100.00;96803.22;5044385;28;20254;-54
2022/07/30 00:52:35;;;;;;;2.80;2.63;;;;;;;18.42;100.00;96813.75;5045033;28;20281;-54
2022/07/30 00:55:02;;;;;;;2.80;2.50;;;;;;;18.43;100.00;96816.22;5045265;28;20288;-55
2022/07/30 00:57:28;;;;;;;2.45;2.30;;;;;;;18.42;100.00;96818.06;5044632;28;20286;-55
2022/07/30 00:59:55;;;;;;;2.70;2.55;;;;;;;18.44;100.00;96809.88;5043358;28;20292;-55
2022/07/30 01:02:22;;;;;;;2.80;2.60;;;;;;;18.44;100.00;96823.25;5043927;28;20894;-55
2022/07/30 01:04:50;;;;;;;3.03;2.83;;;;;;;18.41;100.00;96823.63;5044254;28;20214;-55
2022/07/30 01:07:17;;;;;;;2.53;2.30;;;;;;;18.38;100.00;96822.16;5044357;28;20207;-55
2022/07/30 01:09:43;;;;;;;3.03;2.50;;;;;;;18.37;100.00;96823.19;5043856;28;20250;-55
2022/07/30 01:12:11;;;;;;;2.80;2.60;;;;;;;18.38;100.00;96819.50;5044747;28;20258;-54
2022/07/30 01:14:41;;;;;;;2.63;2.53;;;;;;;18.35;100.00;96819.03;5043650;28;20210;-56
2022/07/30 01:17:08;;;;;;;2.65;2.45;;;;;;;18.34;100.00;96820.88;5044376;28;20286;-56
2022/07/30 01:19:47;;;;;;;2.60;2.40;;;;;;;18.32;100.00;96819.38;5043742;28;20308;-53
2022/07/30 01:22:22;;;;;;;2.40;2.30;;;;;;;18.28;100.00;96810.09;5043323;28;20195;-56
2022/07/30 01:24:56;;;;;;;2.40;2.30;;;;;;;18.23;100.00;96809.81;5044683;28;20200;-55
2022/07/30 01:27:25;;;;;;;2.45;2.35;;;;;;;18.20;100.00;96815.53;5043805;28;20208;-56
2022/07/30 01:29:52;;;;;;;2.33;2.22;;;;;;;18.14;100.00;96817.09;5043728;28;20235;-55
2022/07/30 01:32:19;;;;;;;4.20;2.75;;;;;;;18.11;100.00;96812.13;5043747;28;20659;-54
2022/07/30 01:34:47;;;;;;;2.30;2.20;;;;;;;18.08;100.00;96812.50;5043652;28;20298;-55
2022/07/30 01:37:14;;;;;;;2.70;2.50;;;;;;;18.04;100.00;96823.75;5043399;28;20287;-54
2022/07/30 01:39:41;;;;;;;2.65;2.45;;;;;;;18.02;100.00;96820.44;5049012;28;20223;-54
2022/07/30 01:42:08;;;;;;;3.35;2.40;;;;;;;18.01;100.00;96821.44;5050162;28;20275;-55
2022/07/30 01:44:37;;;;;;;2.90;2.50;;;;;;;17.94;100.00;96810.66;5048986;28;20229;-55
2022/07/30 01:47:04;;;;;;;2.60;2.40;;;;;;;17.97;100.00;96814.78;5046933;28;20235;-56
2022/07/30 01:49:32;;;;;;;2.50;2.40;;;;;;;17.97;100.00;96820.97;5043358;28;20187;-55
2022/07/30 01:52:00;;;;;;;3.40;2.35;;;;;;;17.94;100.00;96816.00;5043800;28;20222;-53
2022/07/30 01:54:27;;;;;;;2.60;2.40;;;;;;;17.94;100.00;96812.50;5043179;28;20207;-54
2022/07/30 01:56:54;;;;;;;3.28;2.72;;;;;;;17.92;100.00;96819.88;5042986;28;20228;-55
2022/07/30 01:59:22;;;;;;;2.55;2.45;;;;;;;17.92;100.00;96818.84;5043281;28;20210;-55
2022/07/30 02:01:50;;;;;;;2.58;2.40;;;;;;;17.89;100.00;96819.22;5043740;28;20243;-55
2022/07/30 02:04:16;;;;;;;2.80;2.60;;;;;;;17.88;100.00;96811.41;5043563;28;20261;-55
2022/07/30 02:06:46;;;;;;;3.00;2.80;;;;;;;17.90;100.00;96814.72;5043542;28;20203;-55
2022/07/30 02:09:15;;;;;;;2.83;2.70;;;;;;;17.87;100.00;96820.44;5042709;28;20226;-55
2022/07/30 02:14:31;;;;;;;2.53;2.38;;;;;;;17.84;100.00;96821.63;5043309;28;20222;-55
2022/07/30 02:17:00;;;;;;;2.72;2.58;;;;;;;17.83;100.00;96819.13;5043164;28;20234;-55
2022/07/30 02:19:33;;;;;;;2.55;2.35;;;;;;;17.75;100.00;96812.03;5043473;28;20203;-54
2022/07/30 02:22:04;;;;;;;3.55;2.58;;;;;;;17.76;100.00;96816.38;5043412;28;20223;-56
2022/07/30 02:24:32;;;;;;;2.70;2.50;;;;;;;17.71;100.00;96805.38;5044299;28;20203;-55
2022/07/30 02:27:04;;;;;;;2.88;2.60;;;;;;;17.67;100.00;96806.78;5043497;28;20234;-55
2022/07/30 02:29:33;;;;;;;3.38;2.58;;;;;;;17.64;100.00;96803.63;5042777;28;20315;-56
2022/07/30 02:32:06;;;;;;;2.72;2.63;;;;;;;17.59;100.00;96801.50;5042603;28;20309;-55
2022/07/30 02:34:34;;;;;;;2.88;2.67;;;;;;;17.48;100.00;96801.91;5043611;28;20674;-55
2022/07/30 02:37:01;;;;;;;2.58;2.47;;;;;;;17.43;100.00;96796.28;5043018;28;20301;-55
2022/07/30 02:39:29;;;;;;;2.58;2.40;;;;;;;17.40;100.00;96799.31;5043929;28;20261;-56
2022/07/30 02:41:57;;;;;;;2.90;2.65;;;;;;;17.37;100.00;96800.50;5042913;28;20214;-54
2022/07/30 02:44:24;;;;;;;3.03;2.83;;;;;;;17.34;100.00;96806.22;5043157;28;20231;-55
2022/07/30 02:46:51;;;;;;;2.70;2.50;;;;;;;17.29;100.00;96799.75;5042766;28;20231;-53
2022/07/30 02:49:20;;;;;;;2.53;2.33;;;;;;;17.24;100.00;96805.66;5042215;28;20235;-54
2022/07/30 02:51:47;;;;;;;2.63;2.53;;;;;;;17.18;100.00;96814.38;5042704;28;20311;-56
2022/07/30 02:54:15;;;;;;;2.60;2.45;;;;;;;17.14;100.00;96815.75;5042573;28;20700;-55
2022/07/30 02:56:42;;;;;;;2.70;2.50;;;;;;;17.14;100.00;96812.25;5042968;28;21101;-54
2022/07/30 02:59:10;;;;;;;3.20;3.00;;;;;;;17.09;100.00;96818.13;5042416;28;20226;-54
2022/07/30 03:01:37;;;;;;;2.92;2.72;;;;;;;17.06;100.00;96817.66;5042774;28;20286;-54
2022/07/30 03:04:05;;;;;;;3.42;2.38;;;;;;;16.95;100.00;96823.41;5042616;28;20296;-55
2022/07/30 03:06:34;;;;;;;2.92;2.72;;;;;;;16.93;100.00;96821.75;5042458;28;20608;-53
2022/07/30 03:09:02;;;;;;;2.85;2.65;;;;;;;16.96;100.00;96819.75;5042457;28;20298;-53
2022/07/30 03:11:29;;;;;;;3.17;3.00;;;;;;;16.88;100.00;96823.31;5041440;28;20227;-54
2022/07/30 03:13:56;;;;;;;4.50;2.83;;;;;;;16.85;100.00;96829.00;5042755;28;20283;-53
2022/07/30 03:16:25;;;;;;;3.03;2.80;;;;;;;16.85;100.00;96829.84;5042907;28;20200;-56
2022/07/30 03:18:53;;;;;;;3.20;2.90;;;;;;;16.81;100.00;96831.19;5042340;28;20222;-54
2022/07/30 03:21:20;;;;;;;2.90;2.70;;;;;;;16.76;100.00;96828.22;5042876;28;20282;-54
2022/07/30 03:23:49;;;;;;;3.13;2.60;;;;;;;16.77;100.00;96826.38;5042448;28;20585;-55
2022/07/30 03:26:19;;;;;;;3.00;2.80;;;;;;;16.71;100.00;96827.94;5045566;28;20205;-54
2022/07/30 03:28:46;;;;;;;2.70;2.60;;;;;;;16.66;100.00;96832.94;5045901;28;20199;-54
2022/07/30 03:31:14;;;;;;;4.80;3.03;;;;;;;16.61;100.00;96830.00;5046500;28;20214;-54
2022/07/30 03:33:42;;;;;;;3.40;2.80;;;;;;;16.61;100.00;96832.66;5046120;28;20253;-54
2022/07/30 03:36:09;;;;;;;2.78;2.58;;;;;;;16.64;100.00;96836.81;5046572;28;20620;-54
2022/07/30 03:38:36;;;;;;;3.20;3.00;;;;;;;16.64;100.00;96832.31;5045682;28;20247;-54
2022/07/30 03:41:05;;;;;;;3.45;2.92;;;;;;;16.63;100.00;96830.63;5046619;28;20241;-54
2022/07/30 03:43:32;;;;;;;2.85;2.60;;;;;;;16.59;100.00;96831.16;5046649;28;20246;-54
2022/07/30 03:45:58;;;;;;;3.10;2.80;;;;;;;16.52;100.00;96841.69;5045912;28;20301;-54
2022/07/30 03:48:25;;;;;;;3.15;2.65;;;;;;;16.51;100.00;96842.66;5045051;28;20293;-54
2022/07/30 03:50:53;;;;;;;6.07;2.95;;;;;;;16.52;100.00;96836.34;5063198;28;20218;-55
2022/07/30 03:53:22;;;;;;;3.00;2.88;;;;;;;16.54;100.00;96849.53;5064502;28;20251;-54
2022/07/30 03:55:49;;;;;;;3.50;3.20;;;;;;;16.51;100.00;96853.34;5061527;28;20214;-55
2022/07/30 03:58:17;;;;;;;3.47;3.20;;;;;;;16.52;100.00;96854.19;5058195;28;20264;-55
2022/07/30 04:00:47;;;;;;;3.50;3.17;;;;;;;16.47;100.00;96852.06;5065881;28;20230;-56
2022/07/30 04:03:15;;;;;;;4.00;3.03;;;;;;;16.46;100.00;96855.72;5055286;28;20199;-55
2022/07/30 04:05:42;;;;;;;4.07;3.10;;;;;;;16.42;100.00;96854.41;5053001;28;20266;-54
2022/07/30 04:08:08;;;;;;;3.20;3.00;;;;;;;16.41;100.00;96853.56;5069859;28;20195;-55
2022/07/30 04:10:35;;;;;;;3.17;2.97;;;;;;;16.43;100.00;96856.09;5069860;28;20654;-55
2022/07/30 04:13:02;;;;;;;3.40;3.20;;;;;;;16.40;100.00;96856.44;5051787;28;20242;-55
2022/07/30 04:15:31;;;;;;;3.45;3.15;;;;;;;16.40;100.00;96862.56;5046570;28;20234;-54
2022/07/30 04:17:59;;;;;;;4.43;3.10;;;;;;;16.36;100.00;96863.13;5045282;28;20298;-54
2022/07/30 04:20:30;;;;;;;3.38;3.03;;;;;;;16.33;100.00;96866.16;5044729;28;20230;-54
2022/07/30 04:22:58;;;;;;;3.43;3.23;;;;;;;16.33;100.00;96866.16;5045747;28;20659;-55
2022/07/30 04:25:24;;;;;;;3.03;2.83;;;;;;;16.35;100.00;96874.78;5045285;28;20587;-55
2022/07/30 04:27:53;;;;;;;3.27;3.07;;;;;;;16.34;100.00;96873.13;5045070;28;20239;-55
2022/07/30 04:30:20;;;;;;;2.97;2.80;;;;;;;16.42;100.00;96881.09;5044215;28;20221;-54
2022/07/30 04:32:48;;;;;;;3.15;2.72;;;;;;;16.39;100.00;96876.94;5044799;28;20582;-55
2022/07/30 04:35:15;;;;;;;3.20;3.00;;;;;;;16.45;100.00;96878.09;5044853;28;20281;-55
2022/07/30 04:37:41;;;;;;;3.17;2.97;;;;;;;16.47;100.00;96877.91;5043981;28;20534;-55
2022/07/30 04:40:09;;;;;;;2.88;2.78;;;;;;;16.46;100.00;96877.09;5044281;28;20196;-55
2022/07/30 04:42:36;;;;;;;3.20;3.00;;;;;;;16.49;100.00;96884.75;5045703;28;20203;-56
2022/07/30 04:45:03;;;;;;;3.47;2.58;;;;;;;16.49;100.00;96886.56;5044823;28;20286;-55
2022/07/30 04:47:30;;;;;;;3.10;2.88;;;;;;;16.55;100.00;96892.06;5045081;28;20282;-55
2022/07/30 04:49:58;;;;;;;5.60;2.95;;;;;;;16.76;100.00;96894.97;5044319;28;20557;-54
2022/07/30 04:52:25;;;;;;;3.03;2.83;;;;;;;17.21;100.00;96901.41;5044983;28;20231;-54
2022/07/30 04:54:55;;;;;;;3.38;3.17;;;;;;;17.59;100.00;96903.13;5044344;28;20242;-55
2022/07/30 04:57:22;;;;;;;3.70;3.40;;;;;;;17.80;100.00;96905.94;5044956;28;20239;-56
2022/07/30 04:59:49;;;;;;;3.60;3.30;;;;;;;17.92;100.00;96902.84;5044148;28;20554;-53
2022/07/30 05:02:16;;;;;;;3.10;3.00;;;;;;;17.87;100.00;96906.03;5045138;28;20214;-54
2022/07/30 05:04:42;;;;;;;3.33;3.13;;;;;;;17.89;100.00;96910.19;5044780;28;20230;-54
2022/07/30 05:07:12;;;;;;;3.20;2.97;;;;;;;17.79;100.00;96914.97;5044290;28;20710;-54
2022/07/30 05:09:39;;;;;;;2.85;2.65;;;;;;;17.79;100.00;96912.31;5044179;28;20211;-53
2022/07/30 05:12:06;;;;;;;3.40;3.10;;;;;;;17.72;100.00;96914.03;5044812;28;20234;-54
2022/07/30 05:14:33;;;;;;;2.88;2.70;;;;;;;18.00;100.00;96921.47;5044899;28;20219;-56
2022/07/30 05:17:00;;;;;;;3.40;3.10;;;;;;;18.18;100.00;96913.91;5044331;28;20214;-55
2022/07/30 05:19:26;;;;;;;3.47;2.97;;;;;;;18.30;100.00;96921.34;5043506;28;20219;-56
2022/07/30 05:21:53;;;;;;;10.05;3.72;;;;;;;18.17;100.00;96923.81;5044848;28;20293;-56
2022/07/30 05:24:21;;;;;;;4.53;3.50;;;;;;;18.16;100.00;96924.84;5043204;28;20292;-55
2022/07/30 05:26:48;;;;;;;8.43;3.80;;;;;;;18.18;100.00;96929.97;5043625;28;20199;-54
2022/07/30 05:29:15;;;;;;;5.07;3.55;;;;;;;18.14;100.00;96929.50;5043880;28;20215;-55
2022/07/30 05:31:42;;;;;;;3.70;3.40;;;;;;;18.14;100.00;96928.72;5044207;28;20199;-54
2022/07/30 05:34:08;;;;;;;3.50;3.20;;;;;;;18.11;100.00;96929.88;5043346;28;20219;-54
2022/07/30 05:36:35;;;;;;;3.40;3.20;;;;;;;18.14;100.00;96934.06;5043840;28;20239;-56
2022/07/30 05:39:04;;;;;;;4.50;3.08;;;;;;;18.16;100.00;96934.69;5042806;28;20715;-54
2022/07/30 05:41:32;;;;;;;3.38;3.15;;;;;;;18.16;100.00;96932.03;5044224;28;20296;-54
2022/07/30 05:44:00;;;;;;;3.60;3.30;;;;;;;18.27;100.00;96934.25;5044678;28;20234;-54
2022/07/30 05:46:27;;;;;;;3.60;3.30;;;;;;;18.25;100.00;96931.75;5043846;28;20211;-54
2022/07/30 05:48:54;;;;;;;3.60;3.30;;;;;;;18.33;100.00;96938.88;5043210;28;20245;-55
2022/07/30 05:51:21;;;;;;;3.65;3.35;;;;;;;18.42;100.00;96934.25;5044422;28;20200;-53
2022/07/30 05:53:47;;;;;;;5.65;3.80;;;;;;;18.80;100.00;96936.66;5043416;28;20238;-55
2022/07/30 05:56:14;;;;;;;3.63;3.42;;;;;;;19.17;100.00;96934.81;5043422;28;20593;-55
2022/07/30 05:58:42;;;;;;;6.78;4.10;;;;;;;19.38;100.00;96935.66;5042851;28;20295;-55
2022/07/30 06:01:11;;;;;;;4.68;3.50;;;;;;;19.81;99.45;96938.38;5054617;28;20275;-54
2022/07/30 06:03:38;;;;;;;3.95;3.63;;;;;;;20.15;98.98;96943.00;5051485;28;20201;-54
2022/07/30 06:06:05;;;;;;;3.50;3.10;;;;;;;20.38;96.22;96948.97;5053994;28;20211;-55
2022/07/30 06:08:32;;;;;;;3.53;3.20;;;;;;;20.51;94.98;96942.88;5047983;28;20235;-54
2022/07/30 06:10:58;;;;;;;3.53;3.30;;;;;;;20.41;94.89;96943.19;5044309;28;20270;-55
2022/07/30 06:13:25;;;;;;;3.70;3.40;;;;;;;20.29;96.93;96947.47;5043694;28;20219;-54
2022/07/30 06:15:53;;;;;;;3.50;3.20;;;;;;;20.33;98.12;96941.50;5043724;28;20666;-56
2022/07/30 06:18:20;;;;;;;3.65;3.45;;;;;;;20.23;94.82;96945.50;5043284;28;20235;-55
2022/07/30 06:20:48;;;;;;;3.50;3.22;;;;;;;20.17;96.16;96955.19;5043726;28;20577;-56
2022/07/30 06:23:15;;;;;;;3.67;3.38;;;;;;;20.20;96.51;96946.75;5042966;28;20546;-55
2022/07/30 06:25:41;;;;;;;3.58;3.28;;;;;;;20.22;96.57;96951.94;5043062;28;20205;-56
2022/07/30 06:28:08;;;;;;;3.22;3.03;;;;;;;20.27;96.58;96952.16;5043390;28;20234;-56
2022/07/30 06:30:34;;;;;;;4.05;3.50;;;;;;;20.32;95.91;96944.38;5043263;28;20199;-55
2022/07/30 06:33:02;;;;;;;7.38;3.20;;;;;;;20.54;96.91;96947.84;5045076;28;20310;-56
2022/07/30 06:35:32;;;;;;;3.42;3.13;;;;;;;20.75;95.37;96945.91;5044960;28;20318;-55
2022/07/30 06:37:59;;;;;;;3.42;3.10;;;;;;;20.76;94.58;96958.28;5045918;28;20209;-55
2022/07/30 06:40:26;;;;;;;3.28;3.03;;;;;;;20.70;91.30;96955.56;5043258;28;20223;-54
2022/07/30 06:42:52;;;;;;;3.95;2.92;;;;;;;20.69;91.58;96957.41;5046965;28;20873;-55
2022/07/30 06:45:19;;;;;;;3.95;2.83;;;;;;;20.67;94.79;96953.28;5045416;28;20295;-54
2022/07/30 06:47:46;;;;;;;3.80;3.45;;;;;;;20.65;92.25;96956.16;5042987;28;20284;-55
2022/07/30 06:50:14;;;;;;;3.15;2.78;;;;;;;20.64;91.28;96954.50;5044873;28;20199;-55
2022/07/30 06:52:41;;;;;;;2.92;2.78;;;;;;;20.64;93.57;96951.84;5045083;28;20207;-54
2022/07/30 06:55:08;;;;;;;3.17;2.95;;;;;;;20.68;93.25;96961.16;5044824;28;20294;-55
2022/07/30 06:57:34;;;;;;;3.33;3.10;;;;;;;20.67;93.90;96953.28;5044030;28;20230;-55
2022/07/30 07:00:01;;;;;;;3.13;2.92;;;;;;;20.64;90.64;96962.56;5043656;28;20291;-54
2022/07/30 07:02:28;;;;;;;3.22;3.03;;;;;;;20.61;91.78;96960.28;5044045;28;20241;-54
2022/07/30 07:04:54;;;;;;;3.85;2.72;;;;;;;20.61;92.98;96964.84;5045240;28;20196;-55
2022/07/30 07:07:22;;;;;;;3.40;3.10;;;;;;;20.60;92.53;96960.47;5044821;28;20282;-54
2022/07/30 07:09:49;;;;;;;3.42;3.13;;;;;;;20.61;90.89;96962.97;5043344;28;20204;-54
2022/07/30 07:12:16;;;;;;;5.63;3.00;;;;;;;20.67;89.94;96972.94;5044153;28;20207;-54
2022/07/30 07:14:42;;;;;;;3.13;2.80;;;;;;;20.72;87.98;96972.34;5043999;28;20310;-55
2022/07/30 07:17:10;;;;;;;3.53;2.90;;;;;;;20.74;87.14;96968.41;5045363;28;20196;-55
2022/07/30 07:19:36;;;;;;;3.10;2.90;;;;;;;20.81;86.46;96973.81;5043925;28;20698;-54
2022/07/30 07:22:03;;;;;;;3.10;2.90;;;;;;;20.90;84.10;96969.13;5044768;28;20238;-56
2022/07/30 07:24:31;;;;;;;4.68;3.03;;;;;;;21.09;80.75;96969.19;5045212;28;20197;-53
2022/07/30 07:26:58;;;;;;;3.42;2.90;;;;;;;21.33;82.99;96968.69;5045510;28;20480;-55
2022/07/30 07:29:24;;;;;;;4.25;2.75;;;;;;;21.91;80.40;96974.44;5045613;28;20330;-54
2022/07/30 07:31:51;;;;;;;4.90;3.00;;;;;;;22.35;82.22;96970.31;5049703;28;20282;-55
2022/07/30 07:34:17;;;;;;;3.63;2.80;;;;;;;22.59;77.61;96965.09;5043948;28;20215;-54
2022/07/30 07:36:45;;;;;;;2.53;2.40;;;;;;;22.70;80.23;96966.34;5045810;28;20747;-55
2022/07/30 07:39:12;;;;;;;2.80;2.60;;;;;;;23.21;77.97;96966.38;5053032;28;20207;-56
2022/07/30 07:41:40;;;;;;;3.08;2.63;;;;;;;23.73;75.54;96968.84;5062548;28;20229;-55
2022/07/30 07:44:07;;;;;;;2.65;2.40;;;;;;;24.07;71.50;96966.72;5064846;28;20186;-56
2022/07/30 07:46:34;;;;;;;2.85;2.65;;;;;;;24.34;65.39;96972.78;5067712;28;20206;-56
2022/07/30 07:49:01;;;;;;;2.53;2.35;;;;;;;24.73;68.05;96966.97;5066577;28;20230;-55
2022/07/30 07:51:28;;;;;;;3.53;2.60;;;;;;;24.77;67.16;96965.47;5069647;28;20199;-55
2022/07/30 07:53:54;;;;;;;3.90;2.47;;;;;;;25.23;65.70;96970.38;5057250;28;20226;-54
2022/07/30 07:56:21;;;;;;;2.78;2.58;;;;;;;25.36;63.74;96970.22;5058381;28;20195;-55
2022/07/30 07:58:52;;;;;;;2.53;2.25;;;;;;;25.47;62.91;96963.22;5067856;28;20188;-54
2022/07/30 08:01:20;;;;;;;2.47;2.22;;;;;;;25.69;60.62;96962.50;5064110;28;20213;-55
2022/07/30 08:03:47;;;;;;;3.13;2.20;;;;;;;25.89;59.52;96964.94;5055945;28;20195;-56
2022/07/30 08:06:14;;;;;;;2.53;2.10;;;;;;;25.48;56.96;96959.44;5047520;28;20292;-56
2022/07/30 08:08:40;;;;;;;2.55;2.17;;;;;;;25.85;59.31;96971.03;5042615;28;20543;-56
2022/07/30 08:11:07;;;;;;;3.80;2.10;;;;;;;26.20;61.18;96969.25;5059119;28;20537;-56
2022/07/30 08:13:34;;;;;;;2.45;2.25;;;;;;;26.16;59.43;96966.16;5062746;28;20318;-56
2022/07/30 08:16:03;;;;;;;3.80;2.17;;;;;;;26.18;55.29;96971.41;5058601;28;20235;-55
2022/07/30 08:18:29;;;;;;;5.95;2.60;;;;;;;26.04;57.66;96968.00;5044411;28;20199;-55
2022/07/30 08:20:56;;;;;;;2.90;2.70;;;;;;;26.06;56.23;96965.09;5045793;28;20204;-54
2022/07/30 08:23:23;;;;;;;2.65;2.45;;;;;;;25.93;54.74;96963.41;5045315;28;20238;-54
2022/07/30 08:25:50;;;;;;;2.95;2.58;;;;;;;25.76;56.89;96959.69;5046057;28;20208;-54
2022/07/30 08:28:17;;;;;;;2.55;2.40;;;;;;;25.94;59.37;96969.63;5045878;28;20199;-53
2022/07/30 08:30:43;;;;;;;3.03;2.35;;;;;;;25.79;57.57;96972.78;5045378;28;20309;-54
2022/07/30 08:33:11;;;;;;;3.22;2.60;;;;;;;25.87;54.72;96968.91;5045821;28;20245;-56
2022/07/30 08:35:38;;;;;;;2.60;2.40;;;;;;;25.94;56.00;96966.94;5045438;28;20305;-56
2022/07/30 08:38:05;;;;;;;3.45;2.50;;;;;;;25.86;55.07;96967.28;5044929;28;20235;-54
2022/07/30 08:40:33;;;;;;;2.70;2.50;;;;;;;25.93;57.92;96959.88;5044931;28;20308;-54
2022/07/30 08:43:00;;;;;;;2.95;2.65;;;;;;;26.31;58.18;96965.75;5044747;28;20456;-56
2022/07/30 08:45:27;;;;;;;3.10;2.90;;;;;;;26.45;52.81;96966.34;5043998;28;20231;-56
2022/07/30 08:47:54;;;;;;;3.78;2.22;;;;;;;26.50;55.93;96969.19;5045250;28;20326;-56
2022/07/30 08:50:22;;;;;;;3.15;2.63;;;;;;;26.43;54.44;96973.91;5044688;28;20675;-56
2022/07/30 08:52:49;;;;;;;3.47;2.83;;;;;;;26.66;55.04;96969.31;5044064;28;20274;-54
2022/07/30 08:55:16;;;;;;;3.17;2.88;;;;;;;26.95;52.98;96959.41;5044773;28;20638;-56
2022/07/30 08:57:43;;;;;;;2.95;2.38;;;;;;;27.21;53.43;96958.03;5044701;28;20195;-55
2022/07/30 09:00:12;;;;;;;3.28;2.58;;;;;;;27.23;52.49;96965.94;5044246;28;20587;-56
2022/07/30 09:02:40;;;;;;;2.72;2.53;;;;;;;27.36;53.31;96966.50;5044743;28;20200;-55
2022/07/30 09:05:07;;;;;;;2.97;2.78;;;;;;;27.29;52.06;96960.38;5044071;28;20344;-54
2022/07/30 09:07:36;;;;;;;5.88;2.90;;;;;;;27.26;54.68;96960.84;5044534;28;20291;-53
2022/07/30 09:10:04;;;;;;;6.25;2.45;;;;;;;27.54;54.01;96958.19;5043445;28;20199;-54
2022/07/30 09:12:35;;;;;;;2.78;2.58;;;;;;;27.76;52.82;96958.34;5044438;28;20234;-55
2022/07/30 09:15:08;;;;;;;3.45;2.70;;;;;;;27.90;51.05;96954.25;5044324;28;20544;-55
2022/07/30 09:17:53;;;;;;;2.80;2.55;;;;;;;28.19;51.20;96960.50;5043984;28;20190;-55
2022/07/30 09:20:20;;;;;;;2.90;2.60;;;;;;;28.22;48.47;96957.28;5044599;28;20714;-54
2022/07/30 09:22:50;;;;;;;6.43;2.65;;;;;;;28.06;48.80;96958.03;5043301;28;20286;-55
2022/07/30 09:25:33;;;;;;;4.30;2.78;;;;;;;28.22;50.34;96960.00;5043361;28;20190;-56
2022/07/30 09:27:59;;;;;;;5.20;3.00;;;;;;;28.32;45.74;96956.63;5044129;28;20235;-54
2022/07/30 09:30:27;;;;;;;5.38;2.80;;;;;;;28.13;49.59;96954.13;5043738;28;20286;-54
2022/07/30 09:32:58;;;;;;;4.43;3.00;;;;;;;27.65;49.79;96951.06;5043633;28;20254;-55
2022/07/30 09:35:25;;;;;;;3.67;2.42;;;;;;;27.95;49.95;96956.25;5043313;28;20231;-55
2022/07/30 09:38:03;;;;;;;3.03;2.83;;;;;;;27.89;46.49;96952.59;5043400;28;20283;-56
2022/07/30 09:40:29;;;;;;;2.70;2.50;;;;;;;27.81;49.13;96961.13;5043579;28;20215;-55
2022/07/30 09:43:04;;;;;;;3.53;3.08;;;;;;;27.78;47.22;96955.38;5043300;28;20238;-55
2022/07/30 09:45:31;;;;;;;6.60;2.85;;;;;;;27.54;50.03;96950.03;5043806;28;20300;-55
2022/07/30 09:47:57;;;;;;;3.30;2.78;;;;;;;27.98;48.36;96955.75;5043183;28;20231;-54
2022/07/30 09:50:25;;;;;;;3.72;2.53;;;;;;;27.83;44.67;96950.03;5044600;28;20211;-56
2022/07/30 09:52:53;;;;;;;2.40;2.25;;;;;;;27.92;46.82;96951.28;5043806;28;20211;-55
2022/07/30 09:55:31;;;;;;;3.80;3.47;;;;;;;27.74;43.85;96948.78;5043638;28;20219;-55
2022/07/30 09:57:59;;;;;;;3.55;3.00;;;;;;;27.31;46.25;96955.53;5043487;28;20249;-55
2022/07/30 10:00:27;;;;;;;4.18;2.80;;;;;;;26.86;45.53;96963.53;5043432;28;20218;-59
2022/07/30 10:02:55;;;;;;;3.00;2.65;;;;;;;26.16;50.53;96952.59;5043427;28;20212;-55
2022/07/30 10:05:23;;;;;;;2.67;2.47;;;;;;;25.92;45.80;96950.09;5041606;28;20245;-56
2022/07/30 10:07:51;;;;;;;2.70;2.50;;;;;;;26.09;46.81;96945.63;5043791;28;21265;-56
2022/07/30 10:10:18;;;;;;;2.60;2.40;;;;;;;26.46;49.95;96952.56;5043730;28;20289;-55
2022/07/30 10:12:48;;;;;;;2.40;2.20;;;;;;;26.90;47.97;96947.59;5043440;28;20279;-55
2022/07/30 10:15:19;;;;;;;2.72;2.53;;;;;;;27.31;47.76;96941.13;5043177;28;20284;-56
2022/07/30 10:17:46;;;;;;;2.75;2.53;;;;;;;26.90;45.72;96943.00;5043206;28;20278;-55
2022/07/30 10:20:13;;;;;;;3.03;2.13;;;;;;;26.58;48.04;96942.53;5052565;28;20285;-55
2022/07/30 10:22:40;;;;;;;2.40;2.30;;;;;;;26.34;50.44;96935.44;5066770;28;20224;-56
2022/07/30 10:25:08;;;;;;;3.28;2.90;;;;;;;26.58;45.65;96934.38;5063395;28;20204;-55
2022/07/30 10:27:35;;;;;;;3.22;2.55;;;;;;;26.33;48.59;96933.78;5046108;28;20231;-55
2022/07/30 10:30:03;;;;;;;2.45;2.22;;;;;;;26.57;47.75;96932.72;5042951;28;20291;-56
2022/07/30 10:32:31;;;;;;;3.75;2.40;;;;;;;26.78;47.79;96923.16;5042606;28;20248;-55
2022/07/30 10:34:59;;;;;;;2.50;2.30;;;;;;;26.96;44.34;96924.94;5043448;28;20757;-56
2022/07/30 10:37:27;;;;;;;2.08;1.98;;;;;;;27.11;43.38;96923.34;5042675;28;20312;-54
2022/07/30 10:39:57;;;;;;;5.13;2.20;;;;;;;26.89;42.95;96913.41;5043835;28;20322;-55
2022/07/30 10:42:50;;;;;;;2.38;2.05;;;;;;;27.16;47.87;96911.78;5043310;28;20302;-55
2022/07/30 10:45:21;;;;;;;4.15;2.15;;;;;;;27.05;44.77;96902.59;5043401;28;20222;-55
2022/07/30 10:47:48;;;;;;;3.55;2.78;;;;;;;26.94;47.29;96924.34;5043021;28;20298;-55
2022/07/30 10:50:17;;;;;;;3.05;2.85;;;;;;;26.64;48.87;96916.34;5043162;28;20302;-53
2022/07/30 10:52:50;;;;;;;3.63;3.28;;;;;;;26.72;51.29;96919.50;5043824;28;20207;-55
2022/07/30 10:55:18;;;;;;;3.33;3.05;;;;;;;27.17;51.37;96914.22;5042953;28;20222;-54
2022/07/30 10:57:58;;;;;;;2.38;2.15;;;;;;;27.51;48.87;96912.50;5042673;28;20233;-54
2022/07/30 11:00:27;;;;;;;2.55;2.10;;;;;;;27.58;46.10;96912.34;5042775;28;20245;-55
2022/07/30 11:03:15;;;;;;;2.03;1.92;;;;;;;27.20;47.04;96919.22;5043083;28;20290;-55
2022/07/30 11:05:42;;;;;;;3.47;2.17;;;;;;;27.46;48.07;96909.69;5041849;28;20234;-56
2022/07/30 11:08:31;;;;;;;4.03;2.15;;;;;;;27.72;47.71;96902.00;5041286;28;20581;-55
2022/07/30 11:10:57;;;;;;;6.25;4.05;;;;;;;28.18;48.74;96912.59;5042115;28;20234;-56
2022/07/30 11:13:48;;;;;;;2.88;2.25;;;;;;;28.20;43.55;96918.59;5042900;28;20207;-54
2022/07/30 11:16:18;;;;;;;3.50;2.50;;;;;;;28.11;45.14;96901.06;5037014;28;20263;-55
2022/07/30 11:19:07;;;;;;;2.45;1.88;;;;;;;28.30;43.78;96899.75;5042466;28;20721;-54
2022/07/30 11:21:34;;;;;;;2.50;2.30;;;;;;;28.49;44.24;96901.13;5042175;28;20203;-55
2022/07/30 11:24:01;;;;;;;3.22;2.20;;;;;;;28.74;43.07;96906.13;5042477;28;20192;-55
2022/07/30 11:26:48;;;;;;;5.28;2.35;;;;;;;28.87;42.61;96891.34;5041770;28;20651;-55
2022/07/30 11:29:35;;;;;;;2.17;1.90;;;;;;;28.92;42.47;96897.66;5041143;28;20230;-55
2022/07/30 11:32:25;;;;;;;2.25;2.15;;;;;;;28.67;43.14;96900.88;5041830;28;20230;-56
2022/07/30 11:34:52;;;;;;;2.08;1.98;;;;;;;28.62;44.80;96898.06;5041401;28;20237;-57
2022/07/30 11:37:19;;;;;;;2.15;1.95;;;;;;;28.47;45.04;96906.00;5041801;28;20294;-55